Time;durP1;ratioP1;P1;durP2;ratioP2;P2;SDS_P1;SDS_P2;PMS_P1;PMS_P2;Temp;Humidity;BMP_temperature;BMP_pressure;BME280_temperature;BME280_humidity;BME280_pressure;Samples;Min_cycle;Max_cycle;Signal;HPM_P1;HPM_P2
2022/06/12 00:01:29;;;;;;;5.60;1.52;;;;;;;;;;5154898;27;20051;-77
2022/06/12 00:03:56;;;;;;;6.03;1.48;;;;;;;;;;5154954;27;20142;-77
2022/06/12 00:06:23;;;;;;;8.50;1.40;;;;;;;;;;5145817;27;22915;-76
2022/06/12 00:08:50;;;;;;;5.90;1.58;;;;;;;;;;5147910;27;20051;-77
2022/06/12 00:11:22;;;;;;;7.07;1.63;;;;;;;;;;5129865;27;20055;-79
2022/06/12 00:13:51;;;;;;;4.28;1.33;;;;;;;;;;5157349;27;20142;-77
2022/06/12 00:16:18;;;;;;;5.70;1.30;;;;;;;;;;5168533;27;20057;-79
2022/06/12 00:18:45;;;;;;;7.05;1.38;;;;;;;;;;5158549;27;20062;-76
2022/06/12 00:21:12;;;;;;;8.05;1.77;;;;;;;;;;5139588;27;20078;-76
2022/06/12 00:23:38;;;;;;;5.25;1.40;;;;;;;;;;5166929;27;20089;-77
2022/06/12 00:26:05;;;;;;;6.53;1.38;;;;;;;;;;5143679;27;20266;-77
2022/06/12 00:28:31;;;;;;;5.28;1.45;;;;;;;;;;5159701;27;20115;-78
2022/06/12 00:30:57;;;;;;;8.13;1.25;;;;;;;;;;5127476;27;20047;-79
2022/06/12 00:33:24;;;;;;;8.77;1.50;;;;;;;;;;5145381;27;20050;-77
2022/06/12 00:35:50;;;;;;;5.68;1.80;;;;;;;;;;5164507;27;20093;-78
2022/06/12 00:38:16;;;;;;;6.47;1.63;;;;;;;;;;5135609;27;20134;-79
2022/06/12 00:40:43;;;;;;;5.60;1.70;;;;;;;;;;5148401;27;20671;-79
2022/06/12 00:43:12;;;;;;;5.95;1.40;;;;;;;;;;5134854;27;20616;-78
2022/06/12 00:45:39;;;;;;;7.20;1.60;;;;;;;;;;5154101;27;21150;-77
2022/06/12 00:48:08;;;;;;;5.72;1.70;;;;;;;;;;5141807;27;20139;-79
2022/06/12 00:50:37;;;;;;;6.80;1.60;;;;;;;;;;5142865;27;20266;-76
2022/06/12 00:53:03;;;;;;;9.13;1.52;;;;;;;;;;5147377;27;20058;-79
2022/06/12 00:55:43;;;;;;;7.85;1.52;;;;;;;;;;5136669;27;20059;-77
2022/06/12 00:58:12;;;;;;;8.43;1.60;;;;;;;;;;5137132;27;20102;-79
2022/06/12 01:00:40;;;;;;;9.30;1.60;;;;;;;;;;5137293;27;20055;-77
2022/06/12 01:03:06;;;;;;;10.90;1.60;;;;;;;;;;5155708;27;20078;-77
2022/06/12 01:08:19;;;;;;;10.50;1.95;;;;;;;;;;5147064;27;20055;-77
2022/06/12 01:10:47;;;;;;;7.43;1.60;;;;;;;;;;5144349;27;20053;-76
2022/06/12 01:13:19;;;;;;;6.25;2.08;;;;;;;;;;5128060;27;20081;-77
2022/06/12 01:15:51;;;;;;;12.73;1.63;;;;;;;;;;5127555;27;20057;-76
2022/06/12 01:18:20;;;;;;;9.20;1.80;;;;;;;;;;5156666;27;20547;-76
2022/06/12 01:20:49;;;;;;;10.38;2.30;;;;;;;;;;5150154;27;20428;-77
2022/06/12 01:23:22;;;;;;;9.02;2.08;;;;;;;;;;5160317;27;20580;-78
2022/06/12 01:26:09;;;;;;;9.10;1.80;;;;;;;;;;5151067;27;20050;-79
2022/06/12 01:28:35;;;;;;;9.85;2.10;;;;;;;;;;5161659;27;20406;-77
2022/06/12 01:31:09;;;;;;;8.23;2.03;;;;;;;;;;5128997;27;20059;-77
2022/06/12 01:33:47;;;;;;;7.57;2.10;;;;;;;;;;5145859;27;20146;-77
2022/06/12 01:36:20;;;;;;;10.30;1.65;;;;;;;;;;5150670;27;20077;-78
2022/06/12 01:39:14;;;;;;;15.57;2.30;;;;;;;;;;5142020;27;20055;-77
2022/06/12 01:41:59;;;;;;;12.40;2.05;;;;;;;;;;5144145;27;20628;-76
2022/06/12 01:44:33;;;;;;;9.05;1.83;;;;;;;;;;5144312;27;20050;-76
2022/06/12 01:47:05;;;;;;;7.68;1.50;;;;;;;;;;5139737;27;20142;-79
2022/06/12 01:49:57;;;;;;;12.68;1.98;;;;;;;;;;5143778;27;20058;-76
2022/06/12 01:52:28;;;;;;;10.05;2.30;;;;;;;;;;5131443;27;20501;-78
2022/06/12 01:54:59;;;;;;;9.73;2.22;;;;;;;;;;5152135;27;20482;-76
2022/06/12 01:57:25;;;;;;;;;;;;;;;;;;5134580;27;20509;-77
2022/06/12 01:59:54;;;;;;;7.43;1.70;;;;;;;;;;5151035;27;47686;-78
2022/06/12 02:02:34;;;;;;;13.35;1.92;;;;;;;;;;5142237;27;20176;-76
2022/06/12 02:05:15;;;;;;;7.85;1.75;;;;;;;;;;5155724;27;20061;-76
2022/06/12 02:07:58;;;;;;;14.23;2.17;;;;;;;;;;5155317;27;20061;-76
2022/06/12 02:10:27;;;;;;;8.27;1.77;;;;;;;;;;5135195;27;20615;-77
2022/06/12 02:13:12;;;;;;;10.88;2.15;;;;;;;;;;5148633;27;20058;-77
2022/06/12 02:16:00;;;;;;;12.57;2.17;;;;;;;;;;5130153;27;20175;-77
2022/06/12 02:18:30;;;;;;;9.10;2.53;;;;;;;;;;5154401;27;20254;-76
2022/06/12 02:21:08;;;;;;;10.75;2.20;;;;;;;;;;5128333;27;20124;-77
2022/06/12 02:23:38;;;;;;;11.52;2.03;;;;;;;;;;5142422;27;20046;-77
2022/06/12 02:26:05;;;;;;;8.27;2.03;;;;;;;;;;5162446;27;20096;-77
2022/06/12 02:28:36;;;;;;;11.65;2.20;;;;;;;;;;5138446;27;20059;-77
2022/06/12 02:31:06;;;;;;;13.57;2.55;;;;;;;;;;5153778;27;20053;-79
2022/06/12 02:33:35;;;;;;;9.85;2.22;;;;;;;;;;5158183;27;20054;-78
2022/06/12 02:36:11;;;;;;;11.52;2.33;;;;;;;;;;5143201;27;20509;-77
2022/06/12 02:38:40;;;;;;;11.07;2.30;;;;;;;;;;5139781;27;20043;-76
2022/06/12 02:41:12;;;;;;;11.18;2.40;;;;;;;;;;5156952;27;20604;-76
2022/06/12 02:43:40;;;;;;;11.05;2.58;;;;;;;;;;5134266;27;20043;-79
2022/06/12 02:46:25;;;;;;;12.15;2.72;;;;;;;;;;5153701;27;20051;-77
2022/06/12 02:48:52;;;;;;;12.65;2.53;;;;;;;;;;5162513;27;20145;-77
2022/06/12 02:51:28;;;;;;;10.90;2.38;;;;;;;;;;5163945;27;20510;-77
2022/06/12 02:54:00;;;;;;;12.70;2.90;;;;;;;;;;5136997;27;20055;-76
2022/06/12 02:56:38;;;;;;;8.23;2.63;;;;;;;;;;5141010;27;20447;-77
2022/06/12 02:59:20;;;;;;;10.80;2.95;;;;;;;;;;5141327;27;20235;-77
2022/06/12 03:02:05;;;;;;;13.73;2.63;;;;;;;;;;5137602;27;20435;-78
2022/06/12 03:04:53;;;;;;;10.50;2.47;;;;;;;;;;5153729;27;20051;-77
2022/06/12 03:07:20;;;;;;;14.90;2.88;;;;;;;;;;5156737;27;20055;-77
2022/06/12 03:09:46;;;;;;;10.68;2.90;;;;;;;;;;5152649;27;20484;-76
2022/06/12 03:12:13;;;;;;;12.75;2.88;;;;;;;;;;5152643;27;20593;-79
2022/06/12 03:14:39;;;;;;;13.00;2.95;;;;;;;;;;5142240;27;20051;-79
2022/06/12 03:17:06;;;;;;;13.82;3.17;;;;;;;;;;5148716;27;20071;-79
2022/06/12 03:19:39;;;;;;;10.93;3.55;;;;;;;;;;5161808;27;20133;-77
2022/06/12 03:22:05;;;;;;;11.05;2.80;;;;;;;;;;5131715;27;20382;-76
2022/06/12 03:24:41;;;;;;;8.77;2.55;;;;;;;;;;5155284;27;20051;-77
2022/06/12 03:27:18;;;;;;;8.30;2.88;;;;;;;;;;5153482;27;20108;-77
2022/06/12 03:29:55;;;;;;;13.18;3.50;;;;;;;;;;5141314;27;20607;-77
2022/06/12 03:32:30;;;;;;;11.93;3.25;;;;;;;;;;5142429;27;20058;-79
2022/06/12 03:34:59;;;;;;;10.52;3.22;;;;;;;;;;5145400;27;20042;-77
2022/06/12 03:37:31;;;;;;;14.07;2.90;;;;;;;;;;5164786;27;20050;-77
2022/06/12 03:40:05;;;;;;;13.13;3.60;;;;;;;;;;5139970;27;20051;-76
2022/06/12 03:42:45;;;;;;;10.30;3.58;;;;;;;;;;5153795;27;20524;-77
2022/06/12 03:45:17;;;;;;;12.73;3.95;;;;;;;;;;5146877;27;20485;-77
2022/06/12 03:47:58;;;;;;;11.32;2.70;;;;;;;;;;5146312;27;20055;-77
2022/06/12 03:50:37;;;;;;;12.75;3.33;;;;;;;;;;5143391;27;20058;-78
2022/06/12 03:53:10;;;;;;;14.63;3.38;;;;;;;;;;5152562;27;20053;-78
2022/06/12 03:58:25;;;;;;;9.45;3.13;;;;;;;;;;5154512;27;20549;-78
2022/06/12 04:00:52;;;;;;;13.57;3.07;;;;;;;;;;5129936;27;20531;-78
2022/06/12 04:03:23;;;;;;;16.58;3.50;;;;;;;;;;5145720;27;20047;-77
2022/06/12 04:05:52;;;;;;;9.23;2.88;;;;;;;;;;5158795;27;20051;-77
2022/06/12 04:08:29;;;;;;;15.40;3.50;;;;;;;;;;5132774;27;20054;-79
2022/06/12 04:10:56;;;;;;;11.00;2.85;;;;;;;;;;5133894;27;20111;-76
2022/06/12 04:13:23;;;;;;;11.65;3.22;;;;;;;;;;5150588;27;20511;-76
2022/06/12 04:15:52;;;;;;;16.52;3.85;;;;;;;;;;5146734;27;20942;-77
2022/06/12 04:18:19;;;;;;;17.88;3.03;;;;;;;;;;5156708;27;20073;-77
2022/06/12 04:20:57;;;;;;;15.13;4.03;;;;;;;;;;5146254;27;20104;-77
2022/06/12 04:23:40;;;;;;;12.20;3.38;;;;;;;;;;5152576;27;20046;-76
2022/06/12 04:26:27;;;;;;;10.82;2.90;;;;;;;;;;5163269;27;20142;-79
2022/06/12 04:28:56;;;;;;;14.02;3.30;;;;;;;;;;5126333;27;20058;-79
2022/06/12 04:31:22;;;;;;;13.18;3.00;;;;;;;;;;5130133;27;20062;-77
2022/06/12 04:33:55;;;;;;;11.77;3.00;;;;;;;;;;5128592;27;20552;-77
2022/06/12 04:36:22;;;;;;;12.07;3.22;;;;;;;;;;5127794;27;20120;-78
2022/06/12 04:38:48;;;;;;;11.07;3.53;;;;;;;;;;5150604;27;20053;-79
2022/06/12 04:41:20;;;;;;;11.13;3.25;;;;;;;;;;5158881;27;20142;-78
2022/06/12 04:43:47;;;;;;;16.70;3.38;;;;;;;;;;5128236;27;20104;-77
2022/06/12 04:46:13;;;;;;;11.73;3.30;;;;;;;;;;5155076;27;20116;-76
2022/06/12 04:48:41;;;;;;;13.80;3.42;;;;;;;;;;5150860;27;20509;-77
2022/06/12 04:51:08;;;;;;;15.90;3.80;;;;;;;;;;5159047;27;20075;-76
2022/06/12 04:53:35;;;;;;;14.32;3.63;;;;;;;;;;5126123;27;20066;-77
2022/06/12 04:56:02;;;;;;;15.05;3.50;;;;;;;;;;5145601;27;20465;-77
2022/06/12 04:58:29;;;;;;;12.15;3.00;;;;;;;;;;5140080;27;20057;-80
2022/06/12 05:00:56;;;;;;;16.42;3.70;;;;;;;;;;5133615;27;20138;-78
2022/06/12 05:03:23;;;;;;;11.23;3.63;;;;;;;;;;5146528;27;20100;-81
2022/06/12 05:05:49;;;;;;;14.85;3.35;;;;;;;;;;5143477;27;20055;-77
2022/06/12 05:08:16;;;;;;;13.40;3.13;;;;;;;;;;5159261;27;20130;-77
2022/06/12 05:10:43;;;;;;;15.82;3.42;;;;;;;;;;5158916;27;20575;-76
2022/06/12 05:13:09;;;;;;;13.48;3.70;;;;;;;;;;5146446;27;20500;-78
2022/06/12 05:15:35;;;;;;;17.88;4.45;;;;;;;;;;5153938;27;20137;-77
2022/06/12 05:18:02;;;;;;;19.67;3.58;;;;;;;;;;5134504;27;20047;-77
2022/06/12 05:20:30;;;;;;;15.30;4.15;;;;;;;;;;5148783;27;20051;-78
2022/06/12 05:22:57;;;;;;;12.88;3.35;;;;;;;;;;5159974;27;20137;-76
2022/06/12 05:25:24;;;;;;;12.48;3.30;;;;;;;;;;5153976;27;20059;-79
2022/06/12 05:27:51;;;;;;;16.45;3.72;;;;;;;;;;5149503;27;20433;-78
2022/06/12 05:30:19;;;;;;;17.30;3.95;;;;;;;;;;5144029;27;20142;-77
2022/06/12 05:32:48;;;;;;;16.77;3.90;;;;;;;;;;5149447;27;20409;-76
2022/06/12 05:35:15;;;;;;;16.08;3.83;;;;;;;;;;5153020;27;20051;-78
2022/06/12 05:37:41;;;;;;;17.48;4.57;;;;;;;;;;5154907;27;20743;-78
2022/06/12 05:40:10;;;;;;;23.83;4.32;;;;;;;;;;5153971;27;20657;-78
2022/06/12 05:42:37;;;;;;;18.42;4.05;;;;;;;;;;5153906;27;20173;-80
2022/06/12 05:45:04;;;;;;;14.43;3.28;;;;;;;;;;5154403;27;20054;-84
2022/06/12 05:47:31;;;;;;;20.15;4.10;;;;;;;;;;5155181;27;20141;-83
2022/06/12 05:49:57;;;;;;;14.30;3.40;;;;;;;;;;5156835;27;20096;-84
2022/06/12 05:52:24;;;;;;;16.35;3.70;;;;;;;;;;5152374;27;20118;-84
2022/06/12 05:54:50;;;;;;;15.70;3.92;;;;;;;;;;5160402;27;20074;-80
2022/06/12 05:57:16;;;;;;;18.13;3.97;;;;;;;;;;5156956;27;20156;-81
2022/06/12 05:59:43;;;;;;;24.27;3.88;;;;;;;;;;5165100;27;20895;-81
2022/06/12 06:02:10;;;;;;;13.93;3.50;;;;;;;;;;5173265;27;20055;-80
2022/06/12 06:04:36;;;;;;;16.80;3.58;;;;;;;;;;5165573;27;20110;-81
2022/06/12 06:07:03;;;;;;;16.60;4.03;;;;;;;;;;5151653;27;20068;-85
2022/06/12 06:09:30;;;;;;;13.85;3.50;;;;;;;;;;5172890;27;20181;-84
2022/06/12 06:11:56;;;;;;;16.33;3.55;;;;;;;;;;5144331;27;20190;-81
2022/06/12 06:14:23;;;;;;;15.23;3.20;;;;;;;;;;5154637;27;20134;-83
2022/06/12 06:16:49;;;;;;;15.73;3.92;;;;;;;;;;5141431;27;20090;-82
2022/06/12 06:19:15;;;;;;;15.35;3.65;;;;;;;;;;5148153;27;20432;-79
2022/06/12 06:21:42;;;;;;;13.48;3.30;;;;;;;;;;5147451;27;20039;-81
2022/06/12 06:24:09;;;;;;;16.27;3.22;;;;;;;;;;5139234;27;20600;-83
2022/06/12 06:26:36;;;;;;;19.98;3.58;;;;;;;;;;5127200;27;20070;-79
2022/06/12 06:29:03;;;;;;;12.23;3.20;;;;;;;;;;5131747;27;20942;-81
2022/06/12 06:31:29;;;;;;;16.30;3.30;;;;;;;;;;5162366;27;20054;-83
2022/06/12 06:33:56;;;;;;;15.90;3.65;;;;;;;;;;5150879;27;20525;-80
2022/06/12 06:36:22;;;;;;;14.43;3.40;;;;;;;;;;5135505;27;20103;-81
2022/06/12 06:38:50;;;;;;;17.17;3.65;;;;;;;;;;5130957;27;20039;-81
2022/06/12 06:41:16;;;;;;;15.93;3.00;;;;;;;;;;5168176;27;20075;-79
2022/06/12 06:46:28;;;;;;;14.68;3.28;;;;;;;;;;5151526;27;20086;-87
2022/06/12 06:48:54;;;;;;;14.77;3.75;;;;;;;;;;5147986;27;20107;-85
2022/06/12 06:51:21;;;;;;;12.77;3.28;;;;;;;;;;5161320;27;20137;-80
2022/06/12 06:53:47;;;;;;;20.00;3.92;;;;;;;;;;5134145;27;20536;-78
2022/06/12 06:56:15;;;;;;;11.20;3.22;;;;;;;;;;5135003;27;20618;-77
2022/06/12 06:58:41;;;;;;;13.30;3.20;;;;;;;;;;5139042;27;20153;-78
2022/06/12 07:01:07;;;;;;;15.98;3.67;;;;;;;;;;5133005;27;20055;-81
2022/06/12 07:03:40;;;;;;;11.48;3.53;;;;;;;;;;5154715;27;20513;-79
2022/06/12 07:06:09;;;;;;;14.50;3.17;;;;;;;;;;5122669;27;20473;-77
2022/06/12 07:08:36;;;;;;;12.50;3.20;;;;;;;;;;5156172;27;20146;-77
2022/06/12 07:11:02;;;;;;;13.05;2.80;;;;;;;;;;5146865;27;20103;-77
2022/06/12 07:13:28;;;;;;;13.32;3.15;;;;;;;;;;5163993;27;20094;-79
2022/06/12 07:15:55;;;;;;;12.48;3.10;;;;;;;;;;5133506;27;21063;-78
2022/06/12 07:18:22;;;;;;;12.93;3.10;;;;;;;;;;5145791;27;20266;-80
2022/06/12 07:20:50;;;;;;;11.02;2.70;;;;;;;;;;5149616;27;20054;-79
2022/06/12 07:23:17;;;;;;;12.18;2.65;;;;;;;;;;5144822;27;20055;-78
2022/06/12 07:25:46;;;;;;;13.75;2.70;;;;;;;;;;5159247;27;20740;-80
2022/06/12 07:28:13;;;;;;;11.30;2.72;;;;;;;;;;5156262;27;20169;-80
2022/06/12 07:30:41;;;;;;;13.90;3.05;;;;;;;;;;5161025;27;20159;-80
2022/06/12 07:33:08;;;;;;;12.50;2.80;;;;;;;;;;5155394;27;20074;-78
2022/06/12 07:35:35;;;;;;;10.38;2.92;;;;;;;;;;5164919;27;20600;-78
2022/06/12 07:38:02;;;;;;;14.40;3.22;;;;;;;;;;5156845;27;20512;-78
2022/06/12 07:40:31;;;;;;;13.52;3.22;;;;;;;;;;5142285;27;20574;-80
2022/06/12 07:42:57;;;;;;;13.90;3.08;;;;;;;;;;5129838;27;20616;-78
2022/06/12 07:45:23;;;;;;;13.48;3.22;;;;;;;;;;5143953;27;20501;-81
2022/06/12 07:47:50;;;;;;;12.90;3.03;;;;;;;;;;5153143;27;20054;-76
2022/06/12 07:50:17;;;;;;;15.70;3.10;;;;;;;;;;5150684;27;20548;-77
2022/06/12 07:52:44;;;;;;;14.52;3.58;;;;;;;;;;5146651;27;20738;-78
2022/06/12 07:55:12;;;;;;;13.98;3.40;;;;;;;;;;5151437;27;20532;-77
2022/06/12 07:57:38;;;;;;;17.00;3.30;;;;;;;;;;5150289;27;20999;-77
2022/06/12 08:00:06;;;;;;;12.43;3.10;;;;;;;;;;5133443;27;20058;-77
2022/06/12 08:02:32;;;;;;;7.68;2.50;;;;;;;;;;5153263;27;20053;-79
2022/06/12 08:04:59;;;;;;;10.18;2.60;;;;;;;;;;5149658;27;20062;-78
2022/06/12 08:07:25;;;;;;;12.52;2.70;;;;;;;;;;5140281;27;20051;-77
2022/06/12 08:09:51;;;;;;;11.90;2.63;;;;;;;;;;5146224;27;20058;-76
2022/06/12 08:12:18;;;;;;;10.98;2.45;;;;;;;;;;5155254;27;20051;-77
2022/06/12 08:14:44;;;;;;;10.38;2.60;;;;;;;;;;5145779;27;20051;-78
2022/06/12 08:17:10;;;;;;;13.15;3.17;;;;;;;;;;5155837;27;20531;-79
2022/06/12 08:22:29;;;;;;;10.38;2.78;;;;;;;;;;5155667;27;20123;-79
2022/06/12 08:24:55;;;;;;;10.75;2.50;;;;;;;;;;5155269;27;20516;-79
2022/06/12 08:27:22;;;;;;;9.85;2.30;;;;;;;;;;5149984;27;20139;-78
2022/06/12 08:29:49;;;;;;;11.75;3.10;;;;;;;;;;5163566;27;20081;-78
2022/06/12 08:32:19;;;;;;;12.32;2.63;;;;;;;;;;5156576;27;20185;-78
2022/06/12 08:34:45;;;;;;;;;;;;;;;;;;5153130;27;20074;-78
2022/06/12 08:37:24;;;;;;;10.30;2.92;;;;;;;;;;5140142;27;46003;-77
2022/06/12 08:39:51;;;;;;;10.00;2.77;;;;;;;;;;5161741;27;20429;-77
2022/06/12 08:42:24;;;;;;;9.68;2.70;;;;;;;;;;5159283;27;20078;-78
2022/06/12 08:44:59;;;;;;;8.52;2.20;;;;;;;;;;5155304;27;20054;-79
2022/06/12 08:47:45;;;;;;;11.68;2.75;;;;;;;;;;5158947;27;20559;-79
2022/06/12 08:50:35;;;;;;;8.70;2.30;;;;;;;;;;5144799;27;20049;-77
2022/06/12 08:53:22;;;;;;;10.68;2.22;;;;;;;;;;5151761;27;20063;-79
2022/06/12 08:55:52;;;;;;;12.07;2.50;;;;;;;;;;5151474;27;20677;-78
2022/06/12 08:58:39;;;;;;;12.02;2.80;;;;;;;;;;5141611;27;20077;-79
2022/06/12 09:01:05;;;;;;;7.68;2.30;;;;;;;;;;5153556;27;20540;-78
2022/06/12 09:03:36;;;;;;;10.13;2.08;;;;;;;;;;5158197;27;20056;-78
2022/06/12 09:06:06;;;;;;;9.60;2.30;;;;;;;;;;5167754;27;20885;-78
2022/06/12 09:08:47;;;;;;;10.10;2.67;;;;;;;;;;5133131;27;20054;-77
2022/06/12 09:11:16;;;;;;;9.40;2.63;;;;;;;;;;5154863;27;20063;-79
2022/06/12 09:13:52;;;;;;;10.02;2.22;;;;;;;;;;5141630;27;20053;-79
2022/06/12 09:16:19;;;;;;;8.00;1.80;;;;;;;;;;5144259;27;20049;-78
2022/06/12 09:18:45;;;;;;;7.65;1.85;;;;;;;;;;5132317;27;20059;-78
2022/06/12 09:21:19;;;;;;;8.10;1.83;;;;;;;;;;5149881;27;20047;-78
2022/06/12 09:24:03;;;;;;;8.55;2.30;;;;;;;;;;5151425;27;20072;-78
2022/06/12 09:26:49;;;;;;;9.05;2.10;;;;;;;;;;5134370;27;20111;-78
2022/06/12 09:29:39;;;;;;;9.20;2.05;;;;;;;;;;5140763;27;20112;-78
2022/06/12 09:32:06;;;;;;;9.20;1.85;;;;;;;;;;5136652;27;20556;-78
2022/06/12 09:34:55;;;;;;;7.30;2.22;;;;;;;;;;5140533;27;20057;-79
2022/06/12 09:40:24;;;;;;;8.70;2.17;;;;;;;;;;5159698;27;20215;-78
2022/06/12 09:43:12;;;;;;;7.88;2.20;;;;;;;;;;5156697;27;20133;-78
2022/06/12 09:45:58;;;;;;;9.68;2.20;;;;;;;;;;5157896;27;20051;-77
2022/06/12 09:48:33;;;;;;;9.77;2.28;;;;;;;;;;5155389;27;20528;-78
2022/06/12 09:51:06;;;;;;;9.90;2.28;;;;;;;;;;5129954;27;20090;-78
2022/06/12 09:53:48;;;;;;;9.10;2.45;;;;;;;;;;5141046;27;20055;-77
2022/06/12 09:56:18;;;;;;;7.35;2.10;;;;;;;;;;5162104;27;20058;-78
2022/06/12 09:58:51;;;;;;;8.90;2.35;;;;;;;;;;5153261;27;20836;-78
2022/06/12 10:01:21;;;;;;;7.82;1.95;;;;;;;;;;5147199;27;20104;-77
2022/06/12 10:03:50;;;;;;;9.38;2.30;;;;;;;;;;5147048;27;20058;-77
2022/06/12 10:06:23;;;;;;;7.63;2.05;;;;;;;;;;5143422;27;20123;-77
2022/06/12 10:09:08;;;;;;;7.88;2.08;;;;;;;;;;5133967;27;20116;-77
2022/06/12 10:11:37;;;;;;;10.02;1.90;;;;;;;;;;5137677;27;20047;-78
2022/06/12 10:14:14;;;;;;;7.00;1.70;;;;;;;;;;5129664;27;20055;-79
2022/06/12 10:16:47;;;;;;;10.93;2.03;;;;;;;;;;5153401;27;20561;-78
2022/06/12 10:19:43;;;;;;;8.82;1.88;;;;;;;;;;5155849;27;20061;-78
2022/06/12 10:22:13;;;;;;;7.30;1.92;;;;;;;;;;5131570;27;20051;-77
2022/06/12 10:24:39;;;;;;;;;;;;;;;;;;5144203;27;20142;-78
2022/06/12 10:27:07;;;;;;;7.32;2.22;;;;;;;;;;5138371;27;44828;-78
2022/06/12 10:29:48;;;;;;;7.60;2.45;;;;;;;;;;5135827;27;20109;-78
2022/06/12 10:32:17;;;;;;;15.40;8.38;;;;;;;;;;5131280;27;21001;-78
2022/06/12 10:34:43;;;;;;;9.10;3.92;;;;;;;;;;5141123;27;20098;-78
2022/06/12 10:37:18;;;;;;;7.15;2.13;;;;;;;;;;5138523;27;20133;-78
2022/06/12 10:39:52;;;;;;;8.18;1.92;;;;;;;;;;5135787;27;20154;-78
2022/06/12 10:42:37;;;;;;;7.53;2.08;;;;;;;;;;5135193;27;20051;-79
2022/06/12 10:45:04;;;;;;;6.97;1.98;;;;;;;;;;5140368;27;20503;-77
2022/06/12 10:47:42;;;;;;;8.52;2.33;;;;;;;;;;5125854;27;20049;-79
2022/06/12 10:50:12;;;;;;;8.43;2.25;;;;;;;;;;5129931;27;20527;-79
2022/06/12 10:52:49;;;;;;;9.20;2.28;;;;;;;;;;5127920;27;20055;-77
2022/06/12 10:55:28;;;;;;;10.50;2.30;;;;;;;;;;5137321;27;20107;-78
2022/06/12 10:58:14;;;;;;;7.47;1.90;;;;;;;;;;5138104;27;20086;-79
2022/06/12 11:00:48;;;;;;;8.30;2.38;;;;;;;;;;5120217;27;20142;-78
2022/06/12 11:03:20;;;;;;;8.38;2.33;;;;;;;;;;5151573;27;20054;-78
2022/06/12 11:05:58;;;;;;;8.55;2.13;;;;;;;;;;5135382;27;20058;-78
2022/06/12 11:08:25;;;;;;;8.25;2.13;;;;;;;;;;5156766;27;20080;-78
2022/06/12 11:11:17;;;;;;;6.25;1.70;;;;;;;;;;5168915;27;20142;-78
2022/06/12 11:14:08;;;;;;;7.60;2.67;;;;;;;;;;5155027;27;20059;-79
2022/06/12 11:17:26;;;;;;;;;;;;;;;;;;;;;
2022/06/12 11:23:40;;;;;;;8.77;2.30;;;;;;;;;;5000687;28;20568;-77
2022/06/12 11:26:15;;;;;;;8.32;1.90;;;;;;;;;;5054837;28;20939;-76
2022/06/12 11:29:00;;;;;;;6.13;1.75;;;;;;;;;;5064490;28;20057;-76
2022/06/12 11:31:29;;;;;;;9.57;1.88;;;;;;;;;;5074562;28;20056;-76
2022/06/12 11:34:01;;;;;;;7.50;2.10;;;;;;;;;;5070931;28;20047;-76
2022/06/12 11:36:41;;;;;;;6.05;1.98;;;;;;;;;;5071050;28;20057;-76
2022/06/12 11:39:11;;;;;;;6.65;1.85;;;;;;;;;;5067238;28;20064;-76
2022/06/12 11:41:56;;;;;;;9.93;2.25;;;;;;;;;;5069934;28;20059;-76
2022/06/12 11:44:38;;;;;;;6.88;1.85;;;;;;;;;;5087885;28;20052;-76
2022/06/12 11:47:27;;;;;;;6.55;1.83;;;;;;;;;;5080751;28;20060;-76
2022/06/12 11:50:13;;;;;;;4.90;1.40;;;;;;;;;;5088066;27;20064;-76
2022/06/12 11:52:53;;;;;;;6.05;1.50;;;;;;;;;;5064452;28;20048;-76
2022/06/12 11:55:20;;;;;;;;;;;;;;;;;;5072092;28;20896;-76
2022/06/12 11:57:49;;;;;;;5.88;1.70;;;;;;;;;;5079771;28;45224;-76
2022/06/12 12:00:17;;;;;;;7.28;1.60;;;;;;;;;;5091429;27;20516;-76
2022/06/12 12:03:02;;;;;;;4.53;1.40;;;;;;;;;;5065001;28;20056;-76
2022/06/12 12:05:34;;;;;;;5.72;1.30;;;;;;;;;;5089321;27;20325;-77
2022/06/12 12:08:20;;;;;;;4.38;1.30;;;;;;;;;;5088417;28;20140;-77
2022/06/12 12:10:48;;;;;;;6.22;1.30;;;;;;;;;;5092296;28;20511;-76
2022/06/12 12:13:20;;;;;;;4.80;1.15;;;;;;;;;;5069663;28;20526;-77
2022/06/12 12:15:55;;;;;;;8.32;3.28;;;;;;;;;;5080174;28;20060;-77
2022/06/12 12:18:29;;;;;;;5.90;1.77;;;;;;;;;;5072002;28;20040;-77
2022/06/12 12:20:56;;;;;;;7.22;1.75;;;;;;;;;;5069021;28;20059;-76
2022/06/12 12:23:25;;;;;;;4.80;1.27;;;;;;;;;;5082868;28;20146;-77
2022/06/12 12:25:58;;;;;;;5.07;1.35;;;;;;;;;;5080442;28;20053;-77
2022/06/12 12:28:33;;;;;;;3.95;1.20;;;;;;;;;;5070317;28;20058;-77
2022/06/12 12:31:03;;;;;;;5.78;1.30;;;;;;;;;;5070631;28;20132;-77
2022/06/12 12:33:29;;;;;;;5.85;1.42;;;;;;;;;;5073887;28;20056;-77
2022/06/12 12:41:39;;;;;;;5.18;1.40;;;;;;;;;;5082802;27;20774;-77
2022/06/12 12:44:05;;;;;;;4.28;1.30;;;;;;;;;;5095863;28;20053;-77
2022/06/12 12:46:49;;;;;;;4.47;1.30;;;;;;;;;;5071801;28;20059;-76
2022/06/12 12:49:36;;;;;;;5.43;1.27;;;;;;;;;;5088251;27;20087;-76
2022/06/12 12:52:07;;;;;;;7.38;2.00;;;;;;;;;;5095419;28;20828;-76
2022/06/12 12:54:44;;;;;;;5.38;1.50;;;;;;;;;;5077812;28;20053;-76
2022/06/12 12:57:11;;;;;;;5.10;1.17;;;;;;;;;;5096663;27;20557;-76
2022/06/12 12:59:40;;;;;;;3.50;1.00;;;;;;;;;;5063685;28;20071;-76
2022/06/12 13:02:18;;;;;;;4.22;1.10;;;;;;;;;;5061759;28;20062;-76
2022/06/12 13:04:45;;;;;;;6.40;1.60;;;;;;;;;;5087130;28;20054;-77
2022/06/12 13:07:22;;;;;;;3.22;1.08;;;;;;;;;;5102857;27;20060;-77
2022/06/12 13:09:54;;;;;;;4.30;1.23;;;;;;;;;;5094802;28;20044;-77
2022/06/12 13:12:21;;;;;;;14.73;8.48;;;;;;;;;;5099938;28;20059;-77
2022/06/12 13:14:58;;;;;;;19.33;9.68;;;;;;;;;;5089710;28;20503;-77
2022/06/12 13:17:25;;;;;;;8.90;3.72;;;;;;;;;;5067130;28;20915;-77
2022/06/12 13:20:05;;;;;;;6.88;2.40;;;;;;;;;;5068601;28;20052;-77
2022/06/12 13:22:50;;;;;;;5.88;1.50;;;;;;;;;;5103381;28;20040;-77
2022/06/12 13:25:19;;;;;;;6.30;1.80;;;;;;;;;;5072696;28;20048;-77
2022/06/12 13:27:48;;;;;;;7.57;1.77;;;;;;;;;;5069817;28;20792;-77
2022/06/12 13:30:17;;;;;;;6.97;1.50;;;;;;;;;;5093438;28;20143;-77
2022/06/12 13:32:44;;;;;;;5.57;1.10;;;;;;;;;;5096139;28;20502;-77
2022/06/12 13:35:34;;;;;;;5.72;1.50;;;;;;;;;;5091245;27;20096;-77
2022/06/12 13:38:02;;;;;;;6.00;1.48;;;;;;;;;;5081764;28;20136;-76
2022/06/12 13:40:34;;;;;;;4.30;1.20;;;;;;;;;;5070880;27;20060;-76
2022/06/12 13:43:32;;;;;;;7.68;1.42;;;;;;;;;;5064729;28;20166;-76
2022/06/12 13:46:00;;;;;;;5.90;1.30;;;;;;;;;;5085653;28;20063;-77
2022/06/12 13:48:34;;;;;;;5.03;1.40;;;;;;;;;;5079744;28;20066;-77
2022/06/12 13:51:04;;;;;;;5.22;1.20;;;;;;;;;;5069996;28;20143;-77
2022/06/12 13:53:30;;;;;;;4.05;1.10;;;;;;;;;;5075376;28;20056;-76
2022/06/12 13:56:01;;;;;;;5.10;1.00;;;;;;;;;;5072895;28;20060;-77
2022/06/12 13:58:29;;;;;;;4.15;0.80;;;;;;;;;;5077211;28;20075;-76
2022/06/12 14:01:06;;;;;;;2.53;0.90;;;;;;;;;;5075443;28;20583;-76
2022/06/12 14:03:37;;;;;;;2.83;1.00;;;;;;;;;;5084540;28;20051;-76
2022/06/12 14:06:05;;;;;;;4.00;1.23;;;;;;;;;;5090361;28;20421;-76
2022/06/12 14:08:33;;;;;;;3.13;1.00;;;;;;;;;;5068870;28;20063;-76
2022/06/12 14:10:59;;;;;;;3.97;1.23;;;;;;;;;;5084888;28;20056;-77
2022/06/12 14:13:31;;;;;;;4.15;1.00;;;;;;;;;;5096800;28;20423;-77
2022/06/12 14:16:07;;;;;;;4.30;1.13;;;;;;;;;;5068917;28;20055;-77
2022/06/12 14:18:33;;;;;;;5.80;1.20;;;;;;;;;;5064733;28;20064;-77
2022/06/12 14:21:02;;;;;;;4.18;1.08;;;;;;;;;;5068457;28;20146;-77
2022/06/12 14:23:29;;;;;;;4.97;1.45;;;;;;;;;;5066742;28;20143;-77
2022/06/12 14:26:01;;;;;;;3.47;1.25;;;;;;;;;;5067064;28;20139;-76
2022/06/12 14:28:33;;;;;;;3.30;0.80;;;;;;;;;;5087916;28;20096;-77
2022/06/12 14:31:05;;;;;;;4.60;1.02;;;;;;;;;;5095239;28;20139;-77
2022/06/12 14:33:40;;;;;;;3.38;1.10;;;;;;;;;;5082895;28;20094;-77
2022/06/12 14:36:09;;;;;;;3.90;1.05;;;;;;;;;;5098600;27;20076;-77
2022/06/12 14:38:36;;;;;;;5.45;1.13;;;;;;;;;;5078591;28;20057;-77
2022/06/12 14:41:03;;;;;;;4.88;1.50;;;;;;;;;;5065811;28;20057;-76
2022/06/12 14:43:35;;;;;;;5.55;1.60;;;;;;;;;;5089909;28;20139;-77
2022/06/12 14:46:15;;;;;;;5.72;1.30;;;;;;;;;;5072462;28;20110;-76
2022/06/12 14:48:42;;;;;;;3.72;1.00;;;;;;;;;;5081372;28;20080;-76
2022/06/12 14:51:09;;;;;;;5.70;1.05;;;;;;;;;;5078197;28;20131;-76
2022/06/12 14:53:36;;;;;;;3.17;1.05;;;;;;;;;;5090328;28;20052;-76
2022/06/12 14:56:03;;;;;;;4.10;1.20;;;;;;;;;;5088691;28;20060;-76
2022/06/12 14:58:37;;;;;;;4.57;1.13;;;;;;;;;;5083821;28;20059;-76
2022/06/12 15:01:16;;;;;;;6.43;1.60;;;;;;;;;;5064278;28;20148;-77
2022/06/12 15:03:43;;;;;;;8.57;2.08;;;;;;;;;;5076282;28;20076;-78
2022/06/12 15:06:10;;;;;;;7.10;1.63;;;;;;;;;;5093120;27;20563;-77
2022/06/12 15:08:39;;;;;;;7.47;1.75;;;;;;;;;;5091772;27;20057;-76
2022/06/12 15:11:16;;;;;;;7.85;2.08;;;;;;;;;;5083079;28;20129;-76
2022/06/12 15:13:42;;;;;;;10.60;1.98;;;;;;;;;;5068982;28;20051;-77
2022/06/12 15:16:11;;;;;;;8.30;2.00;;;;;;;;;;5081085;28;20052;-77
2022/06/12 15:18:38;;;;;;;5.90;2.33;;;;;;;;;;5094782;28;20110;-76
2022/06/12 15:21:05;;;;;;;8.00;2.47;;;;;;;;;;5085099;28;20059;-77
2022/06/12 15:23:32;;;;;;;5.90;2.17;;;;;;;;;;5070811;28;20514;-77
2022/06/12 15:31:28;;;;;;;9.00;2.60;;;;;;;;;;5102291;27;20052;-77
2022/06/12 15:34:15;;;;;;;8.68;2.60;;;;;;;;;;5077594;28;20075;-77